createdAt,value
2022-12-07T00:01:11.491Z,92.53
2022-12-07T00:03:39.680Z,92.39
2022-12-07T00:06:07.917Z,92.37
2022-12-07T00:08:36.089Z,92.48
2022-12-07T00:11:11.348Z,92.59
2022-12-07T00:13:38.828Z,92.51
2022-12-07T00:16:09.036Z,92.47
2022-12-07T00:18:35.704Z,92.63
2022-12-07T00:21:07.962Z,92.57
2022-12-07T00:23:36.120Z,92.58
2022-12-07T00:26:17.606Z,92.50
2022-12-07T00:28:53.506Z,92.70
2022-12-07T00:31:23.105Z,92.52
2022-12-07T00:33:51.405Z,92.59
2022-12-07T00:36:26.291Z,92.61
2022-12-07T00:38:54.956Z,92.43
2022-12-07T00:41:26.006Z,92.52
2022-12-07T00:43:54.976Z,92.47
2022-12-07T00:46:22.370Z,92.58
2022-12-07T00:48:50.027Z,92.50
2022-12-07T00:51:19.968Z,92.48
2022-12-07T00:53:47.693Z,92.54
2022-12-07T00:56:17.542Z,92.47
2022-12-07T00:58:44.585Z,92.61
2022-12-07T01:01:14.268Z,92.55
2022-12-07T01:03:42.399Z,92.45
2022-12-07T01:06:09.481Z,92.62
2022-12-07T01:08:36.719Z,92.40
2022-12-07T01:11:09.349Z,92.66
2022-12-07T01:13:36.911Z,92.69
2022-12-07T01:16:05.737Z,92.64
2022-12-07T01:18:35.167Z,92.70
2022-12-07T01:21:08.263Z,92.84
2022-12-07T01:23:36.429Z,92.69
2022-12-07T01:26:07.232Z,92.84
2022-12-07T01:28:34.349Z,92.94
2022-12-07T01:31:04.707Z,93.04
2022-12-07T01:33:34.675Z,92.96
2022-12-07T01:36:06.522Z,92.94
2022-12-07T01:38:33.865Z,93.24
2022-12-07T01:41:02.478Z,93.06
2022-12-07T01:43:31.181Z,93.18
2022-12-07T01:45:58.626Z,93.11
2022-12-07T01:48:37.443Z,93.10
2022-12-07T01:51:09.962Z,93.08
2022-12-07T01:53:39.528Z,93.19
2022-12-07T01:56:11.834Z,93.28
2022-12-07T01:58:38.752Z,93.24
2022-12-07T02:01:06.387Z,93.15
2022-12-07T02:03:39.782Z,93.18
2022-12-07T02:06:10.155Z,93.24
2022-12-07T02:08:36.960Z,93.19
2022-12-07T02:11:05.889Z,93.09
2022-12-07T02:13:36.166Z,93.07
2022-12-07T02:16:40.203Z,93.28
2022-12-07T02:19:45.715Z,93.15
2022-12-07T02:22:45.585Z,93.23
2022-12-07T02:25:30.163Z,93.19
2022-12-07T02:28:05.212Z,93.11
2022-12-07T02:30:34.649Z,93.27
2022-12-07T02:33:18.667Z,93.30
2022-12-07T02:36:12.338Z,93.23
2022-12-07T02:38:46.759Z,93.27
2022-12-07T02:41:22.368Z,93.18
2022-12-07T02:43:54.456Z,93.22
2022-12-07T02:46:32.530Z,93.26
2022-12-07T02:49:00.664Z,93.04
2022-12-07T02:51:31.176Z,93.18
2022-12-07T02:53:58.555Z,93.04
2022-12-07T02:56:46.932Z,93.15
2022-12-07T02:59:40.014Z,93.13
2022-12-07T03:02:16.057Z,93.10
2022-12-07T03:05:01.068Z,93.16
2022-12-07T03:07:30.588Z,93.29
2022-12-07T03:09:57.281Z,93.22
2022-12-07T03:12:32.482Z,93.02
2022-12-07T03:15:15.877Z,92.90
2022-12-07T03:17:50.023Z,93.02
2022-12-07T03:20:21.701Z,92.92
2022-12-07T03:22:49.386Z,93.01
2022-12-07T03:25:18.032Z,93.13
2022-12-07T03:27:57.315Z,93.03
2022-12-07T03:30:30.785Z,93.08
2022-12-07T03:33:03.054Z,93.15
2022-12-07T03:35:38.422Z,92.94
2022-12-07T03:38:24.518Z,92.98
2022-12-07T03:41:06.177Z,92.91
2022-12-07T03:43:33.232Z,92.82
2022-12-07T03:46:18.913Z,92.83
2022-12-07T03:49:00.128Z,92.85
2022-12-07T03:51:35.793Z,92.73
2022-12-07T03:54:35.360Z,92.59
2022-12-07T03:57:03.711Z,92.73
2022-12-07T03:59:31.816Z,92.67
2022-12-07T04:02:06.440Z,92.65
2022-12-07T04:04:34.607Z,92.62
2022-12-07T04:07:01.471Z,92.58
2022-12-07T04:09:30.819Z,92.68
2022-12-07T04:11:57.331Z,92.60
2022-12-07T04:14:25.494Z,92.76
2022-12-07T04:16:57.825Z,92.86
2022-12-07T04:19:30.485Z,92.94
2022-12-07T04:21:58.611Z,92.88
2022-12-07T04:24:26.063Z,92.91
2022-12-07T04:26:53.537Z,92.74
2022-12-07T04:29:20.923Z,92.74
2022-12-07T04:31:48.155Z,92.76
2022-12-07T04:34:17.542Z,92.64
2022-12-07T04:36:47.908Z,92.53
2022-12-07T04:39:23.917Z,92.59
2022-12-07T04:41:50.962Z,92.68
2022-12-07T04:44:18.197Z,92.55
2022-12-07T04:46:45.217Z,92.70
2022-12-07T04:49:13.021Z,92.65
2022-12-07T04:51:40.404Z,92.79
2022-12-07T04:54:07.316Z,92.81
2022-12-07T04:56:35.556Z,92.64
2022-12-07T04:59:03.334Z,92.84
2022-12-07T05:01:30.021Z,92.83
2022-12-07T05:03:56.508Z,92.77
2022-12-07T05:06:23.797Z,92.87
2022-12-07T05:08:50.980Z,92.86
2022-12-07T05:11:36.883Z,92.87
2022-12-07T05:14:05.434Z,92.87
2022-12-07T05:16:32.601Z,92.92
2022-12-07T05:18:59.894Z,92.91
2022-12-07T05:21:26.535Z,92.98
2022-12-07T05:23:53.526Z,92.92
2022-12-07T05:26:20.020Z,92.89
2022-12-07T05:28:50.441Z,92.99
2022-12-07T05:31:17.353Z,92.74
2022-12-07T05:33:43.897Z,92.70
2022-12-07T05:36:13.110Z,92.85
2022-12-07T05:38:42.241Z,92.66
2022-12-07T05:41:35.435Z,92.64
2022-12-07T05:44:03.982Z,92.86
2022-12-07T05:46:30.580Z,92.68
2022-12-07T05:48:57.381Z,92.73
2022-12-07T05:51:24.400Z,92.74
2022-12-07T05:53:52.265Z,92.76
2022-12-07T05:56:21.370Z,92.72
2022-12-07T05:59:09.230Z,92.86
2022-12-07T06:01:35.833Z,92.80
2022-12-07T06:04:02.506Z,92.90
2022-12-07T06:06:29.461Z,92.95
2022-12-07T06:08:56.088Z,92.97
2022-12-07T06:11:42.950Z,93.04
2022-12-07T06:14:09.457Z,92.89
2022-12-07T06:16:42.271Z,92.96
2022-12-07T06:19:09.492Z,92.96
2022-12-07T06:21:35.980Z,92.88
2022-12-07T06:24:02.937Z,92.84
2022-12-07T06:26:33.819Z,92.82
2022-12-07T06:29:02.838Z,92.80
2022-12-07T06:31:29.696Z,92.83
2022-12-07T06:34:04.877Z,92.80
2022-12-07T06:36:31.880Z,92.70
2022-12-07T06:38:58.766Z,92.71
2022-12-07T06:41:25.494Z,92.73
2022-12-07T06:43:55.995Z,92.72
2022-12-07T06:46:26.347Z,92.71
2022-12-07T06:48:53.451Z,92.36
2022-12-07T06:51:21.649Z,92.45
2022-12-07T06:53:48.446Z,92.78
2022-12-07T06:56:15.111Z,92.69
2022-12-07T06:58:42.362Z,92.34
2022-12-07T07:01:17.744Z,92.71
2022-12-07T07:03:45.725Z,92.70
2022-12-07T07:06:13.012Z,92.52
2022-12-07T07:08:43.884Z,92.60
2022-12-07T07:11:11.787Z,92.66
2022-12-07T07:13:38.596Z,92.61
2022-12-07T07:16:07.773Z,92.64
2022-12-07T07:18:35.245Z,92.64
2022-12-07T07:21:04.100Z,92.77
2022-12-07T07:23:31.652Z,92.45
2022-12-07T07:25:58.550Z,92.71
2022-12-07T07:28:25.142Z,92.74
2022-12-07T07:30:51.755Z,92.67
2022-12-07T07:33:18.861Z,92.70
2022-12-07T07:35:47.761Z,92.77
2022-12-07T07:38:14.769Z,92.82
2022-12-07T07:40:41.313Z,92.83
2022-12-07T07:43:08.532Z,92.68
2022-12-07T07:45:36.131Z,92.80
2022-12-07T07:48:05.158Z,93.01
2022-12-07T07:50:32.030Z,92.86
2022-12-07T07:52:59.188Z,92.87
2022-12-07T07:55:28.050Z,92.87
2022-12-07T07:57:55.453Z,92.82
2022-12-07T08:00:23.054Z,92.66
2022-12-07T08:02:50.064Z,92.46
2022-12-07T08:05:17.715Z,92.53
2022-12-07T08:07:45.072Z,92.27
2022-12-07T08:10:13.734Z,92.34
2022-12-07T08:13:02.548Z,92.34
2022-12-07T08:15:32.367Z,92.36
2022-12-07T08:18:02.148Z,92.37
2022-12-07T08:20:33.677Z,92.33
2022-12-07T08:23:00.503Z,92.23
2022-12-07T08:25:30.742Z,92.27
2022-12-07T08:27:57.798Z,92.03
2022-12-07T08:30:24.515Z,92.29
2022-12-07T08:32:51.545Z,92.32
2022-12-07T08:35:18.464Z,92.26
2022-12-07T08:37:46.342Z,92.22
2022-12-07T08:40:17.143Z,92.19
2022-12-07T08:42:45.875Z,92.19
2022-12-07T08:45:14.247Z,91.55
2022-12-07T08:47:44.007Z,88.08
2022-12-07T08:50:11.556Z,86.55
2022-12-07T08:52:42.042Z,86.45
2022-12-07T08:55:12.676Z,86.37
2022-12-07T08:57:40.551Z,87.17
2022-12-07T09:00:10.650Z,87.38
2022-12-07T09:02:39.594Z,87.45
2022-12-07T09:05:14.783Z,87.43
2022-12-07T09:07:49.623Z,87.74
2022-12-07T09:10:17.034Z,87.94
2022-12-07T09:12:44.260Z,88.06
2022-12-07T09:15:11.694Z,86.59
2022-12-07T09:17:38.614Z,85.32
2022-12-07T09:20:09.891Z,84.15
2022-12-07T09:22:39.201Z,84.07
2022-12-07T09:25:09.416Z,81.97
2022-12-07T09:27:36.429Z,79.69
2022-12-07T09:30:03.880Z,77.54
2022-12-07T09:32:33.454Z,75.62
2022-12-07T09:35:00.872Z,70.67
2022-12-07T09:37:27.696Z,69.95
2022-12-07T09:39:54.706Z,72.52
2022-12-07T09:42:33.032Z,74.58
2022-12-07T09:45:01.139Z,75.95
2022-12-07T09:47:28.871Z,77.80
2022-12-07T09:50:05.092Z,78.93
2022-12-07T09:52:38.854Z,80.25
2022-12-07T09:55:11.688Z,80.93
2022-12-07T09:57:40.875Z,81.64
2022-12-07T10:00:15.106Z,80.06
2022-12-07T10:02:50.749Z,77.55
2022-12-07T10:05:26.321Z,78.33
2022-12-07T10:07:53.041Z,79.08
2022-12-07T10:10:35.275Z,79.97
2022-12-07T10:13:13.855Z,80.32
2022-12-07T10:15:52.165Z,80.72
2022-12-07T10:18:45.685Z,81.21
2022-12-07T10:21:14.126Z,78.69
2022-12-07T10:24:00.226Z,79.42
2022-12-07T10:26:48.205Z,79.05
2022-12-07T10:29:17.332Z,79.02
2022-12-07T10:31:46.686Z,75.86
2022-12-07T10:34:27.133Z,75.48
2022-12-07T10:36:54.825Z,76.13
2022-12-07T10:39:23.700Z,76.86
2022-12-07T10:42:04.620Z,77.33
2022-12-07T10:44:33.011Z,77.56
2022-12-07T10:47:22.730Z,77.17
2022-12-07T10:50:32.712Z,74.62
2022-12-07T10:53:22.649Z,71.81
2022-12-07T10:56:11.600Z,70.64
2022-12-07T10:59:26.378Z,69.93
2022-12-07T11:02:05.751Z,69.50
2022-12-07T11:05:09.852Z,70.59
2022-12-07T11:08:02.639Z,70.34
2022-12-07T11:10:43.670Z,70.71
2022-12-07T11:13:26.667Z,72.44
2022-12-07T11:16:26.159Z,69.88
2022-12-07T11:19:04.772Z,71.41
2022-12-07T11:21:52.484Z,73.04
2022-12-07T11:24:23.910Z,73.54
2022-12-07T11:27:11.980Z,74.78
2022-12-07T11:30:09.559Z,75.78
2022-12-07T11:32:50.304Z,76.19
2022-12-07T11:35:33.390Z,76.94
2022-12-07T11:38:12.833Z,77.76
2022-12-07T11:40:41.736Z,78.23
2022-12-07T11:43:19.478Z,78.73
2022-12-07T11:45:51.745Z,78.66
2022-12-07T11:48:21.446Z,77.97
2022-12-07T11:50:52.730Z,77.94
2022-12-07T11:53:28.079Z,76.63
2022-12-07T11:56:05.118Z,76.99
2022-12-07T11:58:37.139Z,77.00
2022-12-07T12:01:20.626Z,76.88
2022-12-07T12:03:53.424Z,76.62
2022-12-07T12:06:24.053Z,76.57
2022-12-07T12:15:40.608Z,77.12
2022-12-07T12:18:22.684Z,76.76
2022-12-07T12:21:19.522Z,77.19
2022-12-07T12:23:59.409Z,76.95
2022-12-07T12:26:31.234Z,76.73
2022-12-07T12:29:19.378Z,76.40
2022-12-07T12:32:07.868Z,77.22
2022-12-07T12:34:59.085Z,76.85
2022-12-07T12:37:37.279Z,76.35
2022-12-07T12:40:16.316Z,77.11
2022-12-07T12:42:48.651Z,77.58
2022-12-07T12:45:29.596Z,76.74
2022-12-07T12:47:59.146Z,76.80
2022-12-07T12:50:38.434Z,76.57
2022-12-07T12:53:13.432Z,75.75
2022-12-07T12:56:07.764Z,75.71
2022-12-07T12:58:40.055Z,76.49
2022-12-07T13:01:32.937Z,76.05
2022-12-07T13:04:01.215Z,76.55
2022-12-07T13:06:27.763Z,77.33
2022-12-07T13:08:59.854Z,77.45
2022-12-07T13:11:32.827Z,77.64
2022-12-07T13:14:37.566Z,78.63
2022-12-07T13:17:05.057Z,79.42
2022-12-07T13:19:43.870Z,79.88
2022-12-07T13:22:29.019Z,79.99
2022-12-07T13:24:59.802Z,80.48
2022-12-07T13:27:29.231Z,80.93
2022-12-07T13:29:57.945Z,81.50
2022-12-07T13:32:30.849Z,81.83
2022-12-07T13:34:57.836Z,81.78
2022-12-07T13:37:38.442Z,81.47
2022-12-07T13:40:23.187Z,81.79
2022-12-07T13:42:59.139Z,81.43
2022-12-07T13:45:49.768Z,81.55
2022-12-07T13:48:33.928Z,81.49
2022-12-07T13:51:02.711Z,81.80
2022-12-07T13:53:31.807Z,81.93
2022-12-07T13:56:02.714Z,81.72
2022-12-07T13:58:33.148Z,81.46
2022-12-07T14:01:01.122Z,81.59
2022-12-07T14:03:32.632Z,81.55
2022-12-07T14:06:23.238Z,81.59
2022-12-07T14:08:54.509Z,81.85
2022-12-07T14:11:30.966Z,81.87
2022-12-07T14:14:00.898Z,82.13
2022-12-07T14:16:35.551Z,81.91
2022-12-07T14:19:07.288Z,82.26
2022-12-07T14:21:35.484Z,81.99
2022-12-07T14:24:21.369Z,82.23
2022-12-07T14:26:50.408Z,82.26
2022-12-07T14:29:24.177Z,82.48
2022-12-07T14:31:50.787Z,82.52
2022-12-07T14:34:17.511Z,82.36
2022-12-07T14:36:44.244Z,82.42
2022-12-07T14:39:13.493Z,82.14
2022-12-07T14:41:52.731Z,82.54
2022-12-07T14:44:28.024Z,82.66
2022-12-07T14:49:42.838Z,82.48
2022-12-07T14:55:07.076Z,82.82
2022-12-07T14:57:39.350Z,82.81
2022-12-07T15:00:07.747Z,83.12
2022-12-07T15:02:34.848Z,83.44
2022-12-07T15:05:01.664Z,83.65
2022-12-07T15:07:30.292Z,83.64
2022-12-07T15:09:58.280Z,84.00
2022-12-07T15:12:26.060Z,84.24
2022-12-07T15:14:52.901Z,84.26
2022-12-07T15:17:31.218Z,84.03
2022-12-07T15:19:58.817Z,83.95
2022-12-07T15:22:25.356Z,83.96
2022-12-07T15:24:51.887Z,84.33
2022-12-07T15:27:21.313Z,84.40
2022-12-07T15:29:49.122Z,84.84
2022-12-07T15:32:16.155Z,84.86
2022-12-07T15:34:44.625Z,85.20
2022-12-07T15:37:13.144Z,85.17
2022-12-07T15:39:39.763Z,85.57
2022-12-07T15:42:06.327Z,85.92
2022-12-07T15:44:51.537Z,85.67
2022-12-07T15:47:20.169Z,85.93
2022-12-07T15:49:46.710Z,86.07
2022-12-07T15:52:14.030Z,85.81
2022-12-07T15:54:40.822Z,86.10
2022-12-07T15:57:08.462Z,86.41
2022-12-07T15:59:35.473Z,86.26
2022-12-07T16:02:02.022Z,86.49
2022-12-07T16:04:30.484Z,86.46
2022-12-07T16:06:57.463Z,86.48
2022-12-07T16:09:24.919Z,86.45
2022-12-07T16:11:51.598Z,87.15
2022-12-07T16:14:18.127Z,86.41
2022-12-07T16:16:45.779Z,87.08
2022-12-07T16:19:12.367Z,87.07
2022-12-07T16:21:39.803Z,87.21
2022-12-07T16:24:07.399Z,87.10
2022-12-07T16:26:36.512Z,87.40
2022-12-07T16:29:03.202Z,87.36
2022-12-07T16:31:32.543Z,87.47
2022-12-07T16:34:02.884Z,87.33
2022-12-07T16:39:16.535Z,87.15
2022-12-07T16:41:43.431Z,87.54
2022-12-07T16:44:12.201Z,87.63
2022-12-07T16:46:39.559Z,87.71
2022-12-07T16:49:06.494Z,87.76
2022-12-07T16:51:35.889Z,87.70
2022-12-07T16:54:02.466Z,88.01
2022-12-07T16:56:30.398Z,87.77
2022-12-07T16:58:59.953Z,87.85
2022-12-07T17:01:29.329Z,87.67
2022-12-07T17:04:00.557Z,87.69
2022-12-07T17:06:29.417Z,87.57
2022-12-07T17:08:57.555Z,87.58
2022-12-07T17:11:27.272Z,87.54
2022-12-07T17:14:14.671Z,87.67
2022-12-07T17:16:41.512Z,87.59
2022-12-07T17:19:10.149Z,87.56
2022-12-07T17:21:37.236Z,87.52
2022-12-07T17:24:07.121Z,87.41
2022-12-07T17:26:36.898Z,87.73
2022-12-07T17:29:07.223Z,87.80
2022-12-07T17:31:35.053Z,87.87
2022-12-07T17:34:02.427Z,87.89
2022-12-07T17:36:35.451Z,87.97
2022-12-07T17:39:03.881Z,87.96
2022-12-07T17:41:49.155Z,87.92
2022-12-07T17:44:18.266Z,87.82
2022-12-07T17:46:47.534Z,87.92
2022-12-07T17:49:14.410Z,88.04
2022-12-07T17:51:59.493Z,87.96
2022-12-07T17:54:26.738Z,88.11
2022-12-07T17:56:54.687Z,87.92
2022-12-07T17:59:21.353Z,87.92
2022-12-07T18:01:48.468Z,87.89
2022-12-07T18:04:15.538Z,87.64
2022-12-07T18:06:46.245Z,87.45
2022-12-07T18:09:15.795Z,87.32
2022-12-07T18:11:45.176Z,87.37
2022-12-07T18:14:12.297Z,87.21
2022-12-07T18:16:39.150Z,86.97
2022-12-07T18:19:07.876Z,86.87
2022-12-07T18:21:35.444Z,86.57
2022-12-07T18:24:04.833Z,86.45
2022-12-07T18:26:34.721Z,86.46
2022-12-07T18:29:01.486Z,86.47
2022-12-07T18:31:29.898Z,86.24
2022-12-07T18:33:57.273Z,86.25
2022-12-07T18:36:25.205Z,86.32
2022-12-07T18:38:53.527Z,86.28
2022-12-07T18:41:20.510Z,86.46
2022-12-07T18:43:47.135Z,86.72
2022-12-07T18:46:19.724Z,86.73
2022-12-07T18:48:47.434Z,87.00
2022-12-07T18:51:15.459Z,87.24
2022-12-07T18:53:43.037Z,87.39
2022-12-07T18:56:24.453Z,87.37
2022-12-07T18:59:12.024Z,87.52
2022-12-07T19:01:39.927Z,87.44
2022-12-07T19:04:07.652Z,87.63
2022-12-07T19:06:35.628Z,87.94
2022-12-07T19:09:06.144Z,87.83
2022-12-07T19:11:52.467Z,87.95
2022-12-07T19:14:31.507Z,87.88
2022-12-07T19:17:02.795Z,87.91
2022-12-07T19:19:33.832Z,88.04
2022-12-07T19:22:01.101Z,88.17
2022-12-07T19:24:28.412Z,88.25
2022-12-07T19:26:55.247Z,88.33
2022-12-07T19:29:21.757Z,88.41
2022-12-07T19:31:48.720Z,88.55
2022-12-07T19:34:17.234Z,88.57
2022-12-07T19:36:46.586Z,88.65
2022-12-07T19:39:15.491Z,88.56
2022-12-07T19:41:46.176Z,88.71
2022-12-07T19:44:25.847Z,88.77
2022-12-07T19:46:57.318Z,88.54
2022-12-07T19:49:30.419Z,88.62
2022-12-07T19:51:59.517Z,88.57
2022-12-07T19:54:32.164Z,88.54
2022-12-07T19:56:58.799Z,88.48
2022-12-07T19:59:30.152Z,88.59
2022-12-07T20:01:57.413Z,88.69
2022-12-07T20:04:29.483Z,88.60
2022-12-07T20:06:59.619Z,88.62
2022-12-07T20:09:26.724Z,88.64
2022-12-07T20:12:12.811Z,88.77
2022-12-07T20:14:39.928Z,88.76
2022-12-07T20:17:08.606Z,88.80
2022-12-07T20:19:38.640Z,88.95
2022-12-07T20:22:05.589Z,88.88
2022-12-07T20:24:34.620Z,88.93
2022-12-07T20:27:01.468Z,88.96
2022-12-07T20:29:29.049Z,88.93
2022-12-07T20:31:56.759Z,89.12
2022-12-07T20:34:25.860Z,89.03
2022-12-07T20:36:54.243Z,89.30
2022-12-07T20:39:23.894Z,89.24
2022-12-07T20:42:20.930Z,89.27
2022-12-07T20:44:47.469Z,89.42
2022-12-07T20:47:14.534Z,89.63
2022-12-07T20:49:41.075Z,89.47
2022-12-07T20:52:08.261Z,89.42
2022-12-07T20:54:35.752Z,89.36
2022-12-07T20:57:04.989Z,89.39
2022-12-07T20:59:35.300Z,89.41
2022-12-07T21:02:06.800Z,89.37
2022-12-07T21:04:33.448Z,89.27
2022-12-07T21:07:00.297Z,89.57
2022-12-07T21:09:27.109Z,89.47
2022-12-07T21:11:54.572Z,89.46
2022-12-07T21:14:26.053Z,89.40
2022-12-07T21:16:52.888Z,89.38
2022-12-07T21:19:19.806Z,89.49
2022-12-07T21:21:46.355Z,89.34
2022-12-07T21:24:15.936Z,89.24
2022-12-07T21:26:42.425Z,89.38
2022-12-07T21:29:09.821Z,89.57
2022-12-07T21:31:38.692Z,89.75
2022-12-07T21:34:06.556Z,89.92
2022-12-07T21:36:34.180Z,89.70
2022-12-07T21:39:02.107Z,89.62
2022-12-07T21:41:31.171Z,89.88
2022-12-07T21:43:58.886Z,89.92
2022-12-07T21:46:32.870Z,90.09
2022-12-07T21:49:03.145Z,90.14
2022-12-07T21:51:34.082Z,90.02
2022-12-07T21:54:02.400Z,90.12
2022-12-07T21:56:34.687Z,90.20
2022-12-07T21:59:21.897Z,90.16
2022-12-07T22:01:49.496Z,90.17
2022-12-07T22:04:20.983Z,90.19
2022-12-07T22:06:48.230Z,90.26
2022-12-07T22:09:15.644Z,90.14
2022-12-07T22:11:42.524Z,90.32
2022-12-07T22:14:29.149Z,90.02
2022-12-07T22:16:55.841Z,90.05
2022-12-07T22:19:23.207Z,90.19
2022-12-07T22:21:49.825Z,90.32
2022-12-07T22:24:17.647Z,90.15
2022-12-07T22:26:44.454Z,90.06
2022-12-07T22:29:11.579Z,90.05
2022-12-07T22:31:41.065Z,89.93
2022-12-07T22:34:14.076Z,90.08
2022-12-07T22:36:40.660Z,90.08
2022-12-07T22:39:09.553Z,89.93
2022-12-07T22:41:36.253Z,90.21
2022-12-07T22:44:07.431Z,90.13
2022-12-07T22:46:37.325Z,89.94
2022-12-07T22:49:05.210Z,89.66
2022-12-07T22:51:40.673Z,90.00
2022-12-07T22:54:15.394Z,89.95
2022-12-07T22:56:42.326Z,89.98
2022-12-07T22:59:10.211Z,89.93
2022-12-07T23:01:37.132Z,89.86
2022-12-07T23:04:04.475Z,89.83
2022-12-07T23:06:32.853Z,89.92
2022-12-07T23:09:02.312Z,89.99
2022-12-07T23:11:50.829Z,89.98
2022-12-07T23:14:24.327Z,89.85
2022-12-07T23:16:50.969Z,89.78
2022-12-07T23:19:18.060Z,89.77
2022-12-07T23:21:47.300Z,89.88
2022-12-07T23:24:14.884Z,89.92
2022-12-07T23:26:45.582Z,89.89
2022-12-07T23:29:17.241Z,89.83
2022-12-07T23:31:45.246Z,89.96
2022-12-07T23:34:12.102Z,90.05
2022-12-07T23:36:39.657Z,89.97
2022-12-07T23:39:06.160Z,90.04
2022-12-07T23:41:33.630Z,90.04
2022-12-07T23:44:02.400Z,89.94
2022-12-07T23:46:32.061Z,90.04
2022-12-07T23:49:02.747Z,89.98
2022-12-07T23:51:29.734Z,90.10
2022-12-07T23:54:02.589Z,90.19
2022-12-07T23:56:33.113Z,90.24
2022-12-07T23:59:00.457Z,90.25
